Sunday, March 29, 2015, 12:20 AM EDT

KPTW, Pottstown Limerick Airport

Location: Royersford, PA, United States Lat: 40.233
Local Time: 12:20 AM EDT ( 4:20 GMT) Lon: -75.55
Time Zone: US/Eastern Elev: 291 ft

Show me the last for .
Show Decoded

2015-03-28 22:54 METAR KPTW 290254Z AUTO 33010G17KT 10SM OVC060 M03/M14 A3018 RMK AO2 PK WND
                 32026/0223 SLP219 60000 T10331144 51030 =
2015-03-28 21:54 METAR KPTW 290154Z AUTO 34010G19KT 10SM BKN055 OVC080 M03/M14 A3015 RMK AO2
                 SLP212 T10281139 =
2015-03-28 20:54 METAR KPTW 290054Z AUTO 31008G18KT 10SM OVC038 M02/M12 A3012 RMK AO2 SNB11E21
                 SLP202 P0000 T10221117 =
2015-03-28 19:54 METAR KPTW 282354Z AUTO 34008KT 10SM FEW044 BKN060 OVC075 M02/M11 A3008 RMK AO2
                 SNE2259 SLP188 P0000 60000 T10171106 10028 21022 52045 =
2015-03-28 18:54 METAR KPTW 282254Z AUTO 33009G23KT 6SM -SN FEW026 OVC065 M02/M08 A3004 RMK AO2
                 SNB49 SLP174 P0000 T10221083 =
2015-03-28 17:54 METAR KPTW 282154Z AUTO 32013G22KT 10SM BKN065 00/M11 A2999 RMK AO2 SLP157
                 T00001111 =
2015-03-28 16:54 METAR KPTW 282054Z AUTO 30013G19KT 10SM OVC060 02/M11 A2995 RMK AO2 SLP142
                 T00171111 53012 =
2015-03-28 15:54 METAR KPTW 281954Z AUTO 31011G18KT 10SM OVC060 03/M10 A2992 RMK AO2 SLP133
                 T00281100 =
2015-03-28 14:54 METAR KPTW 281854Z AUTO 31012G21KT 10SM BKN055 OVC080 02/M10 A2991 RMK AO2
                 SLP130 T00171100 =
2015-03-28 13:54 METAR KPTW 281754Z AUTO 35014G20KT 10SM FEW050 BKN065 OVC085 02/M09 A2992 RMK
                 AO2 SLP130 T00221094 10022 21006 51001 =
2015-03-28 12:54 METAR KPTW 281654Z AUTO 33015G20KT 10SM OVC065 02/M09 A2991 RMK AO2 SLP130
                 T00171089 =
2015-03-28 11:54 METAR KPTW 281554Z AUTO 31010G22KT 10SM OVC070 01/M08 A2992 RMK AO2 SLP131
                 T00061083 =
2015-03-28 10:54 METAR KPTW 281454Z AUTO 32013G22KT 10SM OVC075 01/M08 A2991 RMK AO2 SLP129
                 T00061083 52013 =
2015-03-28 09:54 METAR KPTW 281354Z AUTO 32013G23KT 10SM SCT060 OVC070 01/M08 A2990 RMK AO2
                 SLP125 T00061078 =
2015-03-28 08:54 METAR KPTW 281254Z AUTO 35015G23KT 10SM OVC070 00/M08 A2988 RMK AO2 SLP120
                 T00001078 =
2015-03-28 07:54 METAR KPTW 281154Z AUTO 34010G16KT 10SM OVC070 M01/M08 A2987 RMK AO2 SLP116
                 T10061078 10022 21011 53017 =
2015-03-28 06:54 METAR KPTW 281054Z AUTO 33011KT 10SM OVC055 M01/M08 A2985 RMK AO2 SLP109
                 T10061078 =
2015-03-28 05:54 METAR KPTW 280954Z AUTO 35006KT 10SM OVC065 00/M07 A2983 RMK AO2 SLP102
                 T00001067 =
2015-03-28 04:54 METAR KPTW 280854Z AUTO 33010KT 10SM OVC060 00/M06 A2982 RMK AO2 SLP098
                 T00001061 56003 =
2015-03-28 01:54 METAR KPTW 280554Z AUTO 33008KT 10SM OVC065 02/M04 A2983 RMK AO2 SLP100
                 T00171039 10056 20017 53003 =

Support USWX by starting your Amazon purchase here.